createdAt,value
2023-02-08T00:00:19.440Z,9.05
2023-02-08T00:02:47.114Z,9.38
2023-02-08T00:05:14.743Z,9.13
2023-02-08T00:07:42.267Z,9.10
2023-02-08T00:10:10.512Z,9.52
2023-02-08T00:12:38.344Z,8.43
2023-02-08T00:15:06.135Z,9.20
2023-02-08T00:17:33.673Z,9.02
2023-02-08T00:20:01.307Z,9.25
2023-02-08T00:22:28.900Z,9.60
2023-02-08T00:24:56.465Z,9.70
2023-02-08T00:27:24.016Z,9.90
2023-02-08T00:29:51.562Z,8.85
2023-02-08T00:32:19.253Z,9.00
2023-02-08T00:34:46.816Z,8.85
2023-02-08T00:37:14.388Z,9.35
2023-02-08T00:39:42.947Z,9.77
2023-02-08T00:42:10.523Z,9.65
2023-02-08T00:44:38.459Z,10.13
2023-02-08T00:47:06.043Z,9.35
2023-02-08T00:49:33.640Z,10.98
2023-02-08T00:52:01.366Z,9.77
2023-02-08T00:54:28.933Z,9.20
2023-02-08T00:56:56.487Z,9.18
2023-02-08T00:59:25.206Z,9.90
2023-02-08T01:01:52.793Z,9.23
2023-02-08T01:04:20.310Z,9.55
2023-02-08T01:06:48.227Z,9.75
2023-02-08T01:09:15.805Z,9.90
2023-02-08T01:11:43.392Z,10.35
2023-02-08T01:14:10.959Z,10.80
2023-02-08T01:16:38.730Z,10.18
2023-02-08T01:19:06.911Z,9.52
2023-02-08T01:21:38.633Z,9.40
2023-02-08T01:24:06.496Z,9.73
2023-02-08T01:26:34.066Z,9.10
2023-02-08T01:29:01.719Z,11.00
2023-02-08T01:31:32.190Z,10.35
2023-02-08T01:34:01.150Z,10.27
2023-02-08T01:36:29.461Z,10.25
2023-02-08T01:38:57.436Z,10.43
2023-02-08T01:41:30.150Z,9.43
2023-02-08T01:44:17.485Z,10.18
2023-02-08T01:46:46.384Z,9.10
2023-02-08T01:49:20.064Z,9.77
2023-02-08T01:51:56.785Z,9.68
2023-02-08T01:54:26.535Z,9.85
2023-02-08T01:56:54.124Z,10.20
2023-02-08T01:59:23.719Z,10.75
2023-02-08T02:01:53.051Z,9.63
2023-02-08T02:04:21.705Z,10.65
2023-02-08T02:06:52.816Z,10.40
2023-02-08T02:09:33.890Z,10.00
2023-02-08T02:12:01.793Z,10.77
2023-02-08T02:14:29.817Z,10.75
2023-02-08T02:17:00.390Z,10.30
2023-02-08T02:19:33.926Z,9.50
2023-02-08T02:22:08.049Z,9.85
2023-02-08T02:24:46.368Z,10.25
2023-02-08T02:27:19.423Z,11.20
2023-02-08T02:30:13.233Z,9.73
2023-02-08T02:32:52.686Z,9.90
2023-02-08T02:35:32.296Z,10.55
2023-02-08T02:38:08.892Z,9.82
2023-02-08T02:40:37.148Z,9.63
2023-02-08T02:43:35.572Z,11.02
2023-02-08T02:46:12.172Z,10.85
2023-02-08T02:48:49.203Z,10.35
2023-02-08T02:51:20.689Z,9.45
2023-02-08T02:54:03.794Z,9.85
2023-02-08T02:56:35.109Z,10.00
2023-02-08T02:59:05.646Z,10.90
2023-02-08T03:01:33.538Z,10.05
2023-02-08T03:04:02.051Z,10.80
2023-02-08T03:06:42.064Z,10.30
2023-02-08T03:09:12.598Z,10.27
2023-02-08T03:11:41.936Z,10.68
2023-02-08T03:14:15.196Z,10.70
2023-02-08T03:17:05.965Z,10.25
2023-02-08T03:19:39.754Z,10.52
2023-02-08T03:22:15.804Z,10.95
2023-02-08T03:24:57.688Z,10.23
2023-02-08T03:27:37.654Z,11.25
2023-02-08T03:30:20.670Z,11.10
2023-02-08T03:32:48.246Z,11.05
2023-02-08T03:35:18.104Z,10.80
2023-02-08T03:37:48.833Z,11.23
2023-02-08T03:40:19.364Z,11.33
2023-02-08T03:42:48.037Z,11.48
2023-02-08T03:45:19.420Z,10.40
2023-02-08T03:47:48.730Z,11.15
2023-02-08T03:50:17.775Z,10.95
2023-02-08T03:52:47.229Z,10.18
2023-02-08T03:55:17.166Z,11.35
2023-02-08T03:57:53.877Z,11.77
2023-02-08T04:00:22.266Z,11.60
2023-02-08T04:02:55.452Z,9.95
2023-02-08T04:05:24.121Z,11.75
2023-02-08T04:07:52.268Z,11.57
2023-02-08T04:10:20.063Z,10.50
2023-02-08T04:12:48.833Z,10.55
2023-02-08T04:15:16.524Z,11.05
2023-02-08T04:17:44.107Z,10.75
2023-02-08T04:20:12.105Z,10.98
2023-02-08T04:22:39.743Z,11.13
2023-02-08T04:25:07.572Z,11.18
2023-02-08T04:27:35.236Z,11.52
2023-02-08T04:30:02.894Z,10.98
2023-02-08T04:32:30.433Z,11.20
2023-02-08T04:34:58.116Z,10.68
2023-02-08T04:37:25.642Z,10.60
2023-02-08T04:39:53.366Z,11.75
2023-02-08T04:42:20.933Z,11.43
2023-02-08T04:44:48.569Z,10.98
2023-02-08T04:47:16.132Z,11.23
2023-02-08T04:49:43.747Z,11.73
2023-02-08T04:52:11.328Z,11.40
2023-02-08T04:54:40.857Z,12.30
2023-02-08T04:57:09.753Z,10.63
2023-02-08T04:59:37.379Z,12.27
2023-02-08T05:02:04.943Z,11.48
2023-02-08T05:04:32.910Z,10.93
2023-02-08T05:07:00.897Z,10.45
2023-02-08T05:09:28.430Z,11.20
2023-02-08T05:11:56.010Z,11.65
2023-02-08T05:14:23.691Z,10.75
2023-02-08T05:16:51.354Z,11.48
2023-02-08T05:19:18.945Z,11.85
2023-02-08T05:21:46.557Z,11.45
2023-02-08T05:24:14.177Z,12.75
2023-02-08T05:26:42.295Z,11.73
2023-02-08T05:29:10.650Z,11.68
2023-02-08T05:31:38.492Z,11.95
2023-02-08T05:34:06.146Z,12.13
2023-02-08T05:36:33.750Z,12.07
2023-02-08T05:39:01.270Z,11.50
2023-02-08T05:41:28.824Z,12.00
2023-02-08T05:43:56.430Z,12.35
2023-02-08T05:46:24.059Z,11.63
2023-02-08T05:48:51.626Z,12.50
2023-02-08T05:51:20.760Z,12.00
2023-02-08T05:53:48.388Z,12.48
2023-02-08T05:56:15.938Z,12.65
2023-02-08T05:58:43.540Z,12.77
2023-02-08T06:01:11.620Z,12.60
2023-02-08T06:03:39.648Z,15.85
2023-02-08T06:06:07.655Z,14.98
2023-02-08T06:08:35.222Z,12.73
2023-02-08T06:11:02.879Z,14.52
2023-02-08T06:13:30.511Z,13.10
2023-02-08T06:15:58.269Z,12.32
2023-02-08T06:18:25.865Z,12.45
2023-02-08T06:20:54.362Z,12.63
2023-02-08T06:23:22.663Z,12.73
2023-02-08T06:25:50.365Z,12.98
2023-02-08T06:28:18.098Z,13.98
2023-02-08T06:30:45.689Z,14.05
2023-02-08T06:33:15.833Z,13.52
2023-02-08T06:35:46.936Z,12.80
2023-02-08T06:38:15.186Z,13.60
2023-02-08T06:40:43.035Z,12.95
2023-02-08T06:43:10.637Z,12.90
2023-02-08T06:45:38.253Z,14.00
2023-02-08T06:48:06.570Z,12.98
2023-02-08T06:50:34.184Z,13.23
2023-02-08T06:53:01.829Z,13.43
2023-02-08T06:55:29.397Z,13.82
2023-02-08T06:57:57.076Z,12.77
2023-02-08T07:00:24.701Z,13.93
2023-02-08T07:02:52.599Z,13.05
2023-02-08T07:05:20.338Z,14.25
2023-02-08T07:07:48.720Z,15.10
2023-02-08T07:10:16.841Z,14.27
2023-02-08T07:12:44.408Z,13.55
2023-02-08T07:15:13.539Z,13.27
2023-02-08T07:17:41.196Z,13.48
2023-02-08T07:20:09.193Z,13.55
2023-02-08T07:22:36.829Z,13.77
2023-02-08T07:25:04.929Z,14.10
2023-02-08T07:27:32.653Z,12.88
2023-02-08T07:30:00.326Z,13.93
2023-02-08T07:32:27.945Z,13.70
2023-02-08T07:34:55.506Z,13.10
2023-02-08T07:37:24.344Z,13.38
2023-02-08T07:39:51.973Z,13.23
2023-02-08T07:42:19.559Z,12.70
2023-02-08T07:44:56.414Z,13.00
2023-02-08T07:47:24.106Z,14.02
2023-02-08T07:49:51.694Z,13.60
2023-02-08T07:52:19.341Z,13.45
2023-02-08T07:54:46.878Z,13.88
2023-02-08T07:57:20.932Z,14.48
2023-02-08T07:59:48.663Z,13.55
2023-02-08T08:02:16.532Z,14.20
2023-02-08T08:04:44.096Z,13.13
2023-02-08T08:07:11.728Z,13.80
2023-02-08T08:09:39.297Z,13.18
2023-02-08T08:12:07.102Z,11.95
2023-02-08T08:14:34.611Z,13.35
2023-02-08T08:17:02.259Z,12.85
2023-02-08T08:19:29.877Z,13.57
2023-02-08T08:21:57.479Z,12.65
2023-02-08T08:24:25.008Z,14.23
2023-02-08T08:26:52.761Z,14.00
2023-02-08T08:29:21.898Z,13.43
2023-02-08T08:31:49.602Z,13.43
2023-02-08T08:34:17.293Z,12.80
2023-02-08T08:36:44.845Z,11.90
2023-02-08T08:39:12.602Z,13.15
2023-02-08T08:41:40.150Z,12.63
2023-02-08T08:44:07.860Z,12.70
2023-02-08T08:46:35.458Z,12.07
2023-02-08T08:49:03.270Z,13.32
2023-02-08T08:51:35.310Z,13.63
2023-02-08T08:54:03.825Z,12.45
2023-02-08T08:56:31.659Z,13.20
2023-02-08T08:58:59.416Z,12.10
2023-02-08T09:01:27.026Z,12.75
2023-02-08T09:03:54.710Z,13.15
2023-02-08T09:06:22.307Z,12.07
2023-02-08T09:08:51.760Z,12.60
2023-02-08T09:11:19.425Z,11.73
2023-02-08T09:13:47.153Z,11.52
2023-02-08T09:16:18.817Z,12.10
2023-02-08T09:18:46.574Z,13.35
2023-02-08T09:21:18.784Z,13.05
2023-02-08T09:23:49.821Z,12.45
2023-02-08T09:26:18.462Z,13.88
2023-02-08T09:28:46.589Z,13.57
2023-02-08T09:31:19.018Z,13.48
2023-02-08T09:33:47.437Z,14.63
2023-02-08T09:36:15.790Z,13.52
2023-02-08T09:38:43.786Z,12.18
2023-02-08T09:41:17.594Z,14.18
2023-02-08T09:44:01.172Z,12.38
2023-02-08T09:46:30.740Z,13.30
2023-02-08T09:49:01.529Z,12.73
2023-02-08T09:51:33.303Z,11.97
2023-02-08T09:54:03.655Z,13.95
2023-02-08T09:56:32.900Z,13.25
2023-02-08T09:59:01.425Z,13.35
2023-02-08T10:01:30.435Z,13.57
2023-02-08T10:04:01.053Z,14.93
2023-02-08T10:06:30.401Z,12.88
2023-02-08T10:09:01.381Z,12.00
2023-02-08T10:11:44.017Z,12.60
2023-02-08T10:14:23.494Z,13.68
2023-02-08T10:17:02.007Z,13.13
2023-02-08T10:19:48.436Z,14.30
2023-02-08T10:22:16.085Z,12.88
2023-02-08T10:24:47.668Z,14.15
2023-02-08T10:29:46.406Z,12.52
2023-02-08T10:32:16.795Z,14.20
2023-02-08T10:34:50.041Z,13.30
2023-02-08T10:37:19.194Z,13.20
2023-02-08T10:39:47.154Z,13.02
2023-02-08T10:42:19.343Z,12.40
2023-02-08T10:45:22.600Z,13.63
2023-02-08T10:48:01.607Z,12.18
2023-02-08T10:50:37.943Z,10.98
2023-02-08T10:53:06.061Z,11.63
2023-02-08T10:55:36.594Z,12.55
2023-02-08T10:58:05.686Z,13.18
2023-02-08T11:00:35.604Z,12.82
2023-02-08T11:03:13.335Z,11.93
2023-02-08T11:05:41.121Z,12.80
2023-02-08T11:08:10.222Z,12.70
2023-02-08T11:10:38.699Z,12.63
2023-02-08T11:13:15.355Z,12.18
2023-02-08T11:15:51.762Z,12.98
2023-02-08T11:18:26.959Z,13.45
2023-02-08T11:20:56.871Z,14.25
2023-02-08T11:23:26.256Z,13.95
2023-02-08T11:25:54.387Z,14.57
2023-02-08T11:28:23.490Z,14.77
2023-02-08T11:30:58.582Z,14.55
2023-02-08T11:33:27.400Z,14.43
2023-02-08T11:35:56.314Z,14.40
2023-02-08T11:38:27.587Z,14.50
2023-02-08T11:41:00.275Z,15.20
2023-02-08T11:43:29.639Z,14.95
2023-02-08T11:45:58.482Z,15.18
2023-02-08T11:48:32.542Z,15.32
2023-02-08T11:51:01.754Z,14.20
2023-02-08T11:53:33.512Z,14.60
2023-02-08T11:56:05.640Z,13.77
2023-02-08T11:58:33.346Z,14.75
2023-02-08T12:01:17.377Z,15.57
2023-02-08T12:03:47.261Z,14.98
2023-02-08T12:06:20.993Z,14.60
2023-02-08T12:08:52.047Z,15.45
2023-02-08T12:11:26.251Z,15.25
2023-02-08T12:13:59.792Z,15.23
2023-02-08T12:16:43.061Z,16.15
2023-02-08T12:19:29.425Z,15.45
2023-02-08T12:22:02.150Z,16.15
2023-02-08T12:24:38.935Z,15.57
2023-02-08T12:27:30.919Z,15.93
2023-02-08T12:30:05.180Z,16.33
2023-02-08T12:32:38.817Z,16.33
2023-02-08T12:35:06.418Z,15.63
2023-02-08T12:38:12.586Z,15.95
2023-02-08T12:40:49.624Z,16.88
2023-02-08T12:43:24.736Z,15.88
2023-02-08T12:45:52.289Z,16.38
2023-02-08T12:48:27.572Z,16.48
2023-02-08T12:51:07.403Z,15.63
2023-02-08T12:53:38.697Z,16.55
2023-02-08T12:56:10.527Z,15.43
2023-02-08T12:59:08.249Z,16.08
2023-02-08T13:01:45.472Z,15.95
2023-02-08T13:04:21.202Z,15.77
2023-02-08T13:06:57.904Z,15.40
2023-02-08T13:09:35.880Z,14.45
2023-02-08T13:12:06.445Z,16.15
2023-02-08T13:14:34.191Z,15.43
2023-02-08T13:17:05.962Z,15.45
2023-02-08T13:19:59.726Z,15.50
2023-02-08T13:22:28.382Z,15.10
2023-02-08T13:25:09.068Z,15.18
2023-02-08T13:27:36.793Z,15.32
2023-02-08T13:30:04.946Z,14.40
2023-02-08T13:32:39.213Z,13.95
2023-02-08T13:35:12.200Z,14.27
2023-02-08T13:37:39.980Z,14.55
2023-02-08T13:40:20.263Z,14.40
2023-02-08T13:42:49.205Z,13.85
2023-02-08T13:45:25.402Z,14.20
2023-02-08T13:47:58.521Z,13.85
2023-02-08T13:50:35.331Z,14.05
2023-02-08T13:53:03.404Z,14.00
2023-02-08T13:55:35.687Z,14.73
2023-02-08T13:58:15.310Z,13.50
2023-02-08T14:00:55.019Z,14.05
2023-02-08T14:03:27.318Z,13.02
2023-02-08T14:05:57.975Z,14.55
2023-02-08T14:08:28.372Z,14.32
2023-02-08T14:11:12.543Z,13.52
2023-02-08T14:13:55.491Z,14.27
2023-02-08T14:16:42.637Z,13.45
2023-02-08T14:19:28.345Z,14.48
2023-02-08T14:22:14.537Z,13.40
2023-02-08T14:24:47.402Z,13.52
2023-02-08T14:27:23.352Z,12.85
2023-02-08T14:30:02.446Z,11.93
2023-02-08T14:32:31.762Z,11.93
2023-02-08T14:35:09.728Z,12.85
2023-02-08T14:37:37.501Z,12.27
2023-02-08T14:40:24.375Z,12.57
2023-02-08T14:43:11.117Z,12.10
2023-02-08T14:45:44.426Z,11.77
2023-02-08T14:48:31.615Z,11.73
2023-02-08T14:51:11.431Z,11.70
2023-02-08T14:53:59.272Z,11.98
2023-02-08T14:56:28.814Z,11.55
2023-02-08T14:59:01.474Z,10.80
2023-02-08T15:01:36.165Z,11.90
2023-02-08T15:04:03.961Z,12.02
2023-02-08T15:06:49.793Z,12.18
2023-02-08T15:09:25.125Z,11.27
2023-02-08T15:12:03.890Z,10.98
2023-02-08T15:14:33.897Z,10.90
2023-02-08T15:17:01.886Z,10.10
2023-02-08T15:19:33.983Z,10.38
2023-02-08T15:22:36.908Z,10.68
2023-02-08T15:25:27.058Z,11.00
2023-02-08T15:28:02.970Z,11.82
2023-02-08T15:30:37.553Z,10.23
2023-02-08T15:33:09.806Z,10.88
2023-02-08T15:35:37.530Z,11.13
2023-02-08T15:38:05.846Z,10.38
2023-02-08T15:40:34.574Z,11.00
2023-02-08T15:43:21.031Z,10.38
2023-02-08T15:45:57.357Z,10.38
2023-02-08T15:48:25.654Z,11.63
2023-02-08T15:50:54.255Z,10.55
2023-02-08T15:53:22.401Z,10.40
2023-02-08T15:55:52.875Z,11.73
2023-02-08T15:58:20.388Z,10.38
2023-02-08T16:00:48.265Z,10.63
2023-02-08T16:03:18.315Z,11.30
2023-02-08T16:05:54.171Z,10.77
2023-02-08T16:08:26.237Z,10.55
2023-02-08T16:11:02.454Z,11.27
2023-02-08T16:13:34.651Z,10.27
2023-02-08T16:16:19.496Z,11.18
2023-02-08T16:18:53.132Z,11.23
2023-02-08T16:21:26.603Z,11.43
2023-02-08T16:23:56.483Z,10.85
2023-02-08T16:26:29.073Z,11.13
2023-02-08T16:29:04.315Z,11.52
2023-02-08T16:31:35.124Z,10.85
2023-02-08T16:34:04.714Z,11.52
2023-02-08T16:36:37.094Z,11.57
2023-02-08T16:39:32.043Z,10.88
2023-02-08T16:42:16.079Z,11.43
2023-02-08T16:44:58.745Z,11.32
2023-02-08T16:47:36.757Z,11.70
2023-02-08T16:50:05.269Z,11.02
2023-02-08T16:52:33.476Z,11.45
2023-02-08T16:55:01.492Z,11.52
2023-02-08T16:57:42.381Z,10.50
2023-02-08T17:00:14.327Z,11.37
2023-02-08T17:02:43.026Z,11.30
2023-02-08T17:05:10.795Z,12.02
2023-02-08T17:07:38.510Z,10.90
2023-02-08T17:10:07.356Z,11.43
2023-02-08T17:12:35.061Z,11.25
2023-02-08T17:15:02.645Z,11.40
2023-02-08T17:17:31.296Z,11.55
2023-02-08T17:19:58.839Z,10.48
2023-02-08T17:22:26.509Z,10.90
2023-02-08T17:24:54.054Z,11.40
2023-02-08T17:27:22.022Z,10.65
2023-02-08T17:29:51.905Z,10.65
2023-02-08T17:32:20.264Z,10.52
2023-02-08T17:34:48.052Z,11.27
2023-02-08T17:37:15.696Z,10.95
2023-02-08T17:39:43.346Z,11.45
2023-02-08T17:42:12.243Z,11.18
2023-02-08T17:44:39.897Z,11.75
2023-02-08T17:47:07.447Z,11.98
2023-02-08T17:49:35.042Z,10.27
2023-02-08T17:52:02.569Z,10.55
2023-02-08T17:54:30.240Z,10.85
2023-02-08T17:56:58.574Z,11.32
2023-02-08T17:59:27.261Z,11.07
2023-02-08T18:01:54.879Z,11.02
2023-02-08T18:04:22.545Z,10.88
2023-02-08T18:06:50.176Z,10.88
2023-02-08T18:09:17.746Z,10.25
2023-02-08T18:11:45.878Z,10.93
2023-02-08T18:14:13.526Z,11.48
2023-02-08T18:16:41.077Z,11.05
2023-02-08T18:19:08.749Z,10.68
2023-02-08T18:21:36.521Z,11.55
2023-02-08T18:24:04.856Z,11.65
2023-02-08T18:26:34.314Z,11.18
2023-02-08T18:29:03.184Z,11.38
2023-02-08T18:31:31.481Z,11.63
2023-02-08T18:33:59.211Z,11.40
2023-02-08T18:36:26.733Z,12.15
2023-02-08T18:38:55.617Z,10.57
2023-02-08T18:41:25.114Z,10.52
2023-02-08T18:43:54.796Z,11.02
2023-02-08T18:46:23.555Z,11.38
2023-02-08T18:48:51.669Z,11.60
2023-02-08T18:51:19.760Z,11.25
2023-02-08T18:53:51.783Z,11.40
2023-02-08T18:56:22.812Z,9.65
2023-02-08T18:58:51.919Z,11.32
2023-02-08T19:01:20.810Z,10.55
2023-02-08T19:03:48.675Z,11.32
2023-02-08T19:06:18.250Z,10.60
2023-02-08T19:08:46.487Z,11.68
2023-02-08T19:11:19.194Z,11.15
2023-02-08T19:13:47.374Z,9.77
2023-02-08T19:16:17.261Z,10.90
2023-02-08T19:18:45.629Z,11.05
2023-02-08T19:21:14.395Z,10.93
2023-02-08T19:23:41.981Z,9.70
2023-02-08T19:26:17.834Z,10.75
2023-02-08T19:28:46.089Z,10.27
2023-02-08T19:31:15.241Z,11.13
2023-02-08T19:33:44.514Z,10.27
2023-02-08T19:36:22.415Z,10.60
2023-02-08T19:38:50.681Z,10.45
2023-02-08T19:41:21.563Z,10.55
2023-02-08T19:43:49.759Z,10.82
2023-02-08T19:46:20.085Z,10.15
2023-02-08T19:48:47.721Z,10.32
2023-02-08T19:51:15.294Z,10.30
2023-02-08T19:53:42.892Z,10.13
2023-02-08T19:56:12.757Z,9.45
2023-02-08T19:58:40.330Z,9.27
2023-02-08T20:01:12.672Z,11.27
2023-02-08T20:03:40.350Z,9.95
2023-02-08T20:06:14.295Z,10.00
2023-02-08T20:08:41.990Z,10.00
2023-02-08T20:11:16.261Z,9.23
2023-02-08T20:13:43.842Z,9.32
2023-02-08T20:16:11.566Z,9.15
2023-02-08T20:18:39.137Z,9.18
2023-02-08T20:21:06.875Z,9.23
2023-02-08T20:23:34.802Z,9.70
2023-02-08T20:26:16.708Z,8.98
2023-02-08T20:31:16.180Z,8.20
2023-02-08T20:33:44.017Z,8.80
2023-02-08T20:36:16.337Z,8.65
2023-02-08T20:38:43.864Z,7.60
2023-02-08T20:41:13.208Z,8.63
2023-02-08T20:43:42.345Z,8.00
2023-02-08T20:46:11.138Z,8.50
2023-02-08T20:48:38.688Z,7.93
2023-02-08T20:51:06.400Z,7.30
2023-02-08T20:53:34.374Z,8.55
2023-02-08T20:56:05.458Z,8.50
2023-02-08T20:58:33.132Z,8.88
2023-02-08T21:01:00.823Z,8.25
2023-02-08T21:03:28.547Z,8.77
2023-02-08T21:05:56.123Z,8.30
2023-02-08T21:08:23.658Z,7.65
2023-02-08T21:10:51.211Z,7.75
2023-02-08T21:13:18.726Z,8.60
2023-02-08T21:15:46.249Z,8.68
2023-02-08T21:18:13.786Z,8.25
2023-02-08T21:20:41.329Z,7.45
2023-02-08T21:23:08.902Z,8.40
2023-02-08T21:25:44.043Z,8.48
2023-02-08T21:28:12.167Z,7.90
2023-02-08T21:30:40.371Z,8.38
2023-02-08T21:33:07.997Z,7.97
2023-02-08T21:35:36.240Z,8.38
2023-02-08T21:38:05.777Z,8.20
2023-02-08T21:40:33.646Z,7.13
2023-02-08T21:43:01.211Z,7.85
2023-02-08T21:45:28.756Z,7.57
2023-02-08T21:47:56.358Z,8.32
2023-02-08T21:50:42.971Z,7.53
2023-02-08T21:53:31.108Z,7.70
2023-02-08T21:55:59.120Z,7.25
2023-02-08T21:58:26.647Z,7.15
2023-02-08T22:00:54.234Z,6.80
2023-02-08T22:03:21.950Z,7.57
2023-02-08T22:06:08.418Z,7.28
2023-02-08T22:08:35.981Z,6.88
2023-02-08T22:11:04.666Z,7.40
2023-02-08T22:13:33.156Z,7.35
2023-02-08T22:16:02.359Z,7.30
2023-02-08T22:18:29.986Z,6.72
2023-02-08T22:20:57.527Z,7.57
2023-02-08T22:23:25.193Z,6.95
2023-02-08T22:25:52.756Z,8.23
2023-02-08T22:28:20.294Z,7.22
2023-02-08T22:30:48.785Z,6.70
2023-02-08T22:33:16.445Z,6.63
2023-02-08T22:35:43.996Z,7.00
2023-02-08T22:38:11.709Z,7.20
2023-02-08T22:40:42.449Z,6.95
2023-02-08T22:43:10.090Z,7.70
2023-02-08T22:45:37.653Z,7.03
2023-02-08T22:48:06.739Z,6.53
2023-02-08T22:50:34.647Z,6.72
2023-02-08T22:53:02.189Z,7.25
2023-02-08T22:55:29.741Z,7.38
2023-02-08T22:57:57.304Z,7.88
2023-02-08T23:00:24.896Z,7.35
2023-02-08T23:02:52.481Z,6.25
2023-02-08T23:05:20.082Z,7.45
2023-02-08T23:07:47.627Z,7.28
2023-02-08T23:10:15.151Z,6.65
2023-02-08T23:12:42.696Z,6.53
2023-02-08T23:15:11.107Z,6.72
2023-02-08T23:17:38.710Z,6.38
2023-02-08T23:20:06.457Z,6.47
2023-02-08T23:22:37.600Z,7.63
2023-02-08T23:25:05.328Z,7.22
2023-02-08T23:27:32.858Z,7.43
2023-02-08T23:30:00.410Z,7.22
2023-02-08T23:32:27.998Z,6.88
2023-02-08T23:34:55.528Z,7.03
2023-02-08T23:37:23.077Z,6.68
2023-02-08T23:39:50.629Z,7.32
2023-02-08T23:42:27.285Z,6.38
2023-02-08T23:44:55.717Z,6.38
2023-02-08T23:47:24.395Z,6.90
2023-02-08T23:49:52.085Z,6.22
2023-02-08T23:52:20.069Z,7.45
2023-02-08T23:54:48.058Z,6.75
2023-02-08T23:57:15.670Z,7.13
2023-02-08T23:59:43.189Z,6.75
